sensor_id;sensor_type;location;lat;lon;timestamp;pressure;altitude;pressure_sealevel;temperature;humidity
43364;BME280;40636;52.424;-1.948;2022-09-01T00:00:00;100796.72;;;13.67;100.00
43364;BME280;40636;52.424;-1.948;2022-09-01T00:02:29;100790.38;;;13.66;100.00
43364;BME280;40636;52.424;-1.948;2022-09-01T00:04:57;100790.38;;;13.66;100.00
43364;BME280;40636;52.424;-1.948;2022-09-01T00:07:26;100780.44;;;13.65;100.00
43364;BME280;40636;52.424;-1.948;2022-09-01T00:10:00;100778.53;;;13.66;100.00
43364;BME280;40636;52.424;-1.948;2022-09-01T00:12:29;100774.09;;;13.65;100.00
43364;BME280;40636;52.424;-1.948;2022-09-01T00:14:56;100779.34;;;13.66;100.00
43364;BME280;40636;52.424;-1.948;2022-09-01T00:17:25;100773.34;;;13.69;100.00
43364;BME280;40636;52.424;-1.948;2022-09-01T00:19:52;100769.84;;;13.74;100.00
43364;BME280;40636;52.424;-1.948;2022-09-01T00:22:19;100776.19;;;13.75;100.00
43364;BME280;40636;52.424;-1.948;2022-09-01T00:24:46;100761.56;;;13.74;100.00
43364;BME280;40636;52.424;-1.948;2022-09-01T00:27:13;100764.31;;;13.74;100.00
43364;BME280;40636;52.424;-1.948;2022-09-01T00:29:40;100756.09;;;13.79;100.00
43364;BME280;40636;52.424;-1.948;2022-09-01T00:32:10;100758.44;;;13.87;100.00
43364;BME280;40636;52.424;-1.948;2022-09-01T00:34:38;100770.66;;;13.91;100.00
43364;BME280;40636;52.424;-1.948;2022-09-01T00:37:05;100772.66;;;13.96;100.00
43364;BME280;40636;52.424;-1.948;2022-09-01T00:39:32;100763.88;;;13.99;100.00
43364;BME280;40636;52.424;-1.948;2022-09-01T00:42:00;100767.28;;;14.06;100.00
43364;BME280;40636;52.424;-1.948;2022-09-01T00:44:28;100759.59;;;14.08;100.00
43364;BME280;40636;52.424;-1.948;2022-09-01T00:46:58;100764.25;;;14.08;100.00
43364;BME280;40636;52.424;-1.948;2022-09-01T00:49:36;100763.19;;;14.09;100.00
43364;BME280;40636;52.424;-1.948;2022-09-01T00:52:12;100760.66;;;14.07;100.00
43364;BME280;40636;52.424;-1.948;2022-09-01T00:54:48;100762.44;;;14.13;100.00
43364;BME280;40636;52.424;-1.948;2022-09-01T00:57:16;100756.31;;;14.11;100.00
43364;BME280;40636;52.424;-1.948;2022-09-01T00:59:52;100742.56;;;14.16;100.00
43364;BME280;40636;52.424;-1.948;2022-09-01T01:02:20;100759.06;;;14.11;100.00
43364;BME280;40636;52.424;-1.948;2022-09-01T01:04:49;100752.16;;;14.09;100.00
43364;BME280;40636;52.424;-1.948;2022-09-01T01:07:19;100748.28;;;14.10;100.00
43364;BME280;40636;52.424;-1.948;2022-09-01T01:09:49;100757.97;;;14.12;100.00
43364;BME280;40636;52.424;-1.948;2022-09-01T01:12:17;100743.34;;;14.12;100.00
43364;BME280;40636;52.424;-1.948;2022-09-01T01:14:45;100749.19;;;14.15;100.00
43364;BME280;40636;52.424;-1.948;2022-09-01T01:17:20;100745.28;;;14.11;100.00
43364;BME280;40636;52.424;-1.948;2022-09-01T01:19:53;100742.00;;;14.14;100.00
43364;BME280;40636;52.424;-1.948;2022-09-01T01:22:51;100733.13;;;14.12;100.00
43364;BME280;40636;52.424;-1.948;2022-09-01T01:25:47;100738.41;;;14.14;100.00
43364;BME280;40636;52.424;-1.948;2022-09-01T01:28:22;100730.63;;;14.11;100.00
43364;BME280;40636;52.424;-1.948;2022-09-01T01:31:03;100724.78;;;14.07;100.00
43364;BME280;40636;52.424;-1.948;2022-09-01T01:33:38;100725.81;;;14.01;100.00
43364;BME280;40636;52.424;-1.948;2022-09-01T01:36:30;100721.97;;;14.02;100.00
43364;BME280;40636;52.424;-1.948;2022-09-01T01:39:00;100726.91;;;14.00;100.00
43364;BME280;40636;52.424;-1.948;2022-09-01T01:41:30;100717.81;;;14.00;100.00
43364;BME280;40636;52.424;-1.948;2022-09-01T01:43:59;100721.97;;;14.02;100.00
43364;BME280;40636;52.424;-1.948;2022-09-01T01:46:31;100724.38;;;13.99;100.00
43364;BME280;40636;52.424;-1.948;2022-09-01T01:48:59;100719.13;;;13.97;100.00
43364;BME280;40636;52.424;-1.948;2022-09-01T01:51:28;100719.81;;;14.04;100.00
43364;BME280;40636;52.424;-1.948;2022-09-01T01:53:58;100715.03;;;14.00;100.00
43364;BME280;40636;52.424;-1.948;2022-09-01T01:56:27;100702.41;;;14.04;100.00
43364;BME280;40636;52.424;-1.948;2022-09-01T01:58:55;100712.59;;;14.03;100.00
43364;BME280;40636;52.424;-1.948;2022-09-01T02:01:25;100704.25;;;13.98;100.00
43364;BME280;40636;52.424;-1.948;2022-09-01T02:03:55;100713.34;;;13.99;100.00
43364;BME280;40636;52.424;-1.948;2022-09-01T02:06:26;100708.16;;;14.02;100.00
43364;BME280;40636;52.424;-1.948;2022-09-01T02:08:56;100710.41;;;14.05;100.00
43364;BME280;40636;52.424;-1.948;2022-09-01T02:11:24;100702.47;;;14.09;100.00
43364;BME280;40636;52.424;-1.948;2022-09-01T02:13:54;100697.19;;;14.07;100.00
43364;BME280;40636;52.424;-1.948;2022-09-01T02:16:23;100701.63;;;14.08;100.00
43364;BME280;40636;52.424;-1.948;2022-09-01T02:18:51;100698.13;;;14.13;100.00
43364;BME280;40636;52.424;-1.948;2022-09-01T02:21:23;100699.50;;;14.15;100.00
43364;BME280;40636;52.424;-1.948;2022-09-01T02:23:53;100699.44;;;14.10;100.00
43364;BME280;40636;52.424;-1.948;2022-09-01T02:26:26;100699.38;;;14.05;100.00
43364;BME280;40636;52.424;-1.948;2022-09-01T02:28:59;100697.72;;;14.04;100.00
43364;BME280;40636;52.424;-1.948;2022-09-01T02:31:32;100697.38;;;14.01;100.00
43364;BME280;40636;52.424;-1.948;2022-09-01T02:34:01;100693.19;;;13.98;100.00
43364;BME280;40636;52.424;-1.948;2022-09-01T02:36:30;100696.56;;;14.00;100.00
43364;BME280;40636;52.424;-1.948;2022-09-01T02:39:02;100688.22;;;13.95;100.00
43364;BME280;40636;52.424;-1.948;2022-09-01T02:41:33;100696.41;;;13.90;100.00
43364;BME280;40636;52.424;-1.948;2022-09-01T02:44:01;100692.22;;;13.87;100.00
43364;BME280;40636;52.424;-1.948;2022-09-01T02:46:29;100680.28;;;13.82;100.00
43364;BME280;40636;52.424;-1.948;2022-09-01T02:48:56;100685.22;;;13.80;100.00
43364;BME280;40636;52.424;-1.948;2022-09-01T02:51:26;100685.81;;;13.82;100.00
43364;BME280;40636;52.424;-1.948;2022-09-01T02:53:53;100692.94;;;13.78;100.00
43364;BME280;40636;52.424;-1.948;2022-09-01T02:56:22;100686.75;;;13.70;100.00
43364;BME280;40636;52.424;-1.948;2022-09-01T02:58:51;100686.59;;;13.60;100.00
43364;BME280;40636;52.424;-1.948;2022-09-01T03:01:22;100684.09;;;13.59;100.00
43364;BME280;40636;52.424;-1.948;2022-09-01T03:03:54;100670.38;;;13.64;100.00
43364;BME280;40636;52.424;-1.948;2022-09-01T03:06:21;100672.88;;;13.65;100.00
43364;BME280;40636;52.424;-1.948;2022-09-01T03:08:52;100673.13;;;13.64;100.00
43364;BME280;40636;52.424;-1.948;2022-09-01T03:11:20;100671.13;;;13.59;100.00
43364;BME280;40636;52.424;-1.948;2022-09-01T03:13:47;100667.22;;;13.55;100.00
43364;BME280;40636;52.424;-1.948;2022-09-01T03:16:14;100667.13;;;13.50;100.00
43364;BME280;40636;52.424;-1.948;2022-09-01T03:18:41;100664.03;;;13.47;100.00
43364;BME280;40636;52.424;-1.948;2022-09-01T03:21:09;100662.72;;;13.49;100.00
43364;BME280;40636;52.424;-1.948;2022-09-01T03:23:44;100661.63;;;13.50;100.00
43364;BME280;40636;52.424;-1.948;2022-09-01T03:26:13;100661.03;;;13.48;100.00
43364;BME280;40636;52.424;-1.948;2022-09-01T03:28:40;100668.47;;;13.48;100.00
43364;BME280;40636;52.424;-1.948;2022-09-01T03:31:07;100662.53;;;13.56;100.00
43364;BME280;40636;52.424;-1.948;2022-09-01T03:33:34;100666.38;;;13.55;100.00
43364;BME280;40636;52.424;-1.948;2022-09-01T03:36:03;100664.72;;;13.54;100.00
43364;BME280;40636;52.424;-1.948;2022-09-01T03:38:40;100666.63;;;13.53;100.00
43364;BME280;40636;52.424;-1.948;2022-09-01T03:41:10;100657.69;;;13.46;100.00
43364;BME280;40636;52.424;-1.948;2022-09-01T03:43:39;100667.06;;;13.45;100.00
43364;BME280;40636;52.424;-1.948;2022-09-01T03:46:15;100658.53;;;13.47;100.00
43364;BME280;40636;52.424;-1.948;2022-09-01T03:48:50;100664.38;;;13.50;100.00
43364;BME280;40636;52.424;-1.948;2022-09-01T03:51:18;100658.59;;;13.52;100.00
43364;BME280;40636;52.424;-1.948;2022-09-01T03:53:52;100659.97;;;13.49;100.00
43364;BME280;40636;52.424;-1.948;2022-09-01T03:56:25;100656.59;;;13.47;100.00
43364;BME280;40636;52.424;-1.948;2022-09-01T03:58:57;100660.72;;;13.44;100.00
43364;BME280;40636;52.424;-1.948;2022-09-01T04:01:26;100660.72;;;13.44;100.00
43364;BME280;40636;52.424;-1.948;2022-09-01T04:03:54;100648.34;;;13.47;100.00
43364;BME280;40636;52.424;-1.948;2022-09-01T04:06:21;100646.41;;;13.48;100.00
43364;BME280;40636;52.424;-1.948;2022-09-01T04:08:50;100647.16;;;13.43;100.00
43364;BME280;40636;52.424;-1.948;2022-09-01T04:11:29;100650.53;;;13.45;100.00
43364;BME280;40636;52.424;-1.948;2022-09-01T04:13:57;100637.81;;;13.44;100.00
43364;BME280;40636;52.424;-1.948;2022-09-01T04:16:33;100625.94;;;13.43;100.00
43364;BME280;40636;52.424;-1.948;2022-09-01T04:19:21;100620.75;;;13.47;100.00
43364;BME280;40636;52.424;-1.948;2022-09-01T04:21:54;100634.28;;;13.49;100.00
43364;BME280;40636;52.424;-1.948;2022-09-01T04:24:23;100629.78;;;13.42;100.00
43364;BME280;40636;52.424;-1.948;2022-09-01T04:26:54;100624.53;;;13.41;100.00
43364;BME280;40636;52.424;-1.948;2022-09-01T04:29:25;100624.78;;;13.39;100.00
43364;BME280;40636;52.424;-1.948;2022-09-01T04:31:59;100624.28;;;13.42;100.00
43364;BME280;40636;52.424;-1.948;2022-09-01T04:34:33;100619.59;;;13.43;100.00
43364;BME280;40636;52.424;-1.948;2022-09-01T04:37:08;100613.84;;;13.44;100.00
43364;BME280;40636;52.424;-1.948;2022-09-01T04:39:35;100612.97;;;13.44;100.00
43364;BME280;40636;52.424;-1.948;2022-09-01T04:42:05;100616.50;;;13.39;100.00
43364;BME280;40636;52.424;-1.948;2022-09-01T04:44:35;100625.53;;;13.35;100.00
43364;BME280;40636;52.424;-1.948;2022-09-01T04:47:02;100619.25;;;13.39;100.00
43364;BME280;40636;52.424;-1.948;2022-09-01T04:49:29;100611.59;;;13.41;100.00
43364;BME280;40636;52.424;-1.948;2022-09-01T04:51:59;100618.44;;;13.39;100.00
43364;BME280;40636;52.424;-1.948;2022-09-01T04:54:27;100619.84;;;13.41;100.00
43364;BME280;40636;52.424;-1.948;2022-09-01T04:56:54;100610.75;;;13.41;100.00
43364;BME280;40636;52.424;-1.948;2022-09-01T04:59:23;100622.28;;;13.38;100.00
43364;BME280;40636;52.424;-1.948;2022-09-01T05:01:53;100617.78;;;13.32;100.00
43364;BME280;40636;52.424;-1.948;2022-09-01T05:04:23;100620.03;;;13.35;100.00
43364;BME280;40636;52.424;-1.948;2022-09-01T05:06:52;100607.59;;;13.32;100.00
43364;BME280;40636;52.424;-1.948;2022-09-01T05:09:32;100613.25;;;13.26;100.00
43364;BME280;40636;52.424;-1.948;2022-09-01T05:12:05;100616.84;;;13.26;100.00
43364;BME280;40636;52.424;-1.948;2022-09-01T05:14:44;100617.50;;;13.16;100.00
43364;BME280;40636;52.424;-1.948;2022-09-01T05:17:14;100611.06;;;13.11;100.00
43364;BME280;40636;52.424;-1.948;2022-09-01T05:19:45;100613.50;;;13.07;100.00
43364;BME280;40636;52.424;-1.948;2022-09-01T05:22:14;100617.06;;;13.08;100.00
43364;BME280;40636;52.424;-1.948;2022-09-01T05:24:42;100610.25;;;13.10;100.00
43364;BME280;40636;52.424;-1.948;2022-09-01T05:27:09;100607.75;;;13.09;100.00
43364;BME280;40636;52.424;-1.948;2022-09-01T05:29:41;100611.25;;;13.04;100.00
43364;BME280;40636;52.424;-1.948;2022-09-01T05:32:08;100609.22;;;13.16;100.00
43364;BME280;40636;52.424;-1.948;2022-09-01T05:34:39;100610.81;;;13.12;100.00
43364;BME280;40636;52.424;-1.948;2022-09-01T05:37:08;100605.63;;;13.16;100.00
43364;BME280;40636;52.424;-1.948;2022-09-01T05:39:35;100610.91;;;13.17;100.00
43364;BME280;40636;52.424;-1.948;2022-09-01T05:42:04;100603.47;;;13.18;100.00
43364;BME280;40636;52.424;-1.948;2022-09-01T05:44:38;100607.56;;;13.15;100.00
43364;BME280;40636;52.424;-1.948;2022-09-01T05:47:10;100606.56;;;13.21;100.00
43364;BME280;40636;52.424;-1.948;2022-09-01T05:49:47;100603.22;;;13.19;100.00
43364;BME280;40636;52.424;-1.948;2022-09-01T05:52:15;100597.72;;;13.19;100.00
43364;BME280;40636;52.424;-1.948;2022-09-01T05:54:42;100591.88;;;13.16;100.00
43364;BME280;40636;52.424;-1.948;2022-09-01T05:57:10;100590.53;;;13.18;100.00
43364;BME280;40636;52.424;-1.948;2022-09-01T05:59:57;100600.56;;;13.25;100.00
43364;BME280;40636;52.424;-1.948;2022-09-01T06:02:25;100595.13;;;13.30;100.00
43364;BME280;40636;52.424;-1.948;2022-09-01T06:04:53;100595.97;;;13.30;100.00
43364;BME280;40636;52.424;-1.948;2022-09-01T06:07:22;100592.38;;;13.30;100.00
43364;BME280;40636;52.424;-1.948;2022-09-01T06:09:51;100601.25;;;13.32;100.00
43364;BME280;40636;52.424;-1.948;2022-09-01T06:12:19;100588.94;;;13.39;100.00
43364;BME280;40636;52.424;-1.948;2022-09-01T06:14:51;100598.13;;;13.45;100.00
43364;BME280;40636;52.424;-1.948;2022-09-01T06:17:24;100594.03;;;13.48;100.00
43364;BME280;40636;52.424;-1.948;2022-09-01T06:19:53;100598.69;;;13.47;100.00
43364;BME280;40636;52.424;-1.948;2022-09-01T06:22:25;100588.84;;;13.51;100.00
43364;BME280;40636;52.424;-1.948;2022-09-01T06:24:54;100595.44;;;13.50;100.00
43364;BME280;40636;52.424;-1.948;2022-09-01T06:27:28;100603.53;;;13.57;100.00
43364;BME280;40636;52.424;-1.948;2022-09-01T06:29:56;100591.94;;;13.55;100.00
43364;BME280;40636;52.424;-1.948;2022-09-01T06:32:24;100588.91;;;13.56;100.00
43364;BME280;40636;52.424;-1.948;2022-09-01T06:34:53;100588.63;;;13.58;100.00
43364;BME280;40636;52.424;-1.948;2022-09-01T06:37:20;100595.31;;;13.62;100.00
43364;BME280;40636;52.424;-1.948;2022-09-01T06:39:48;100596.81;;;13.69;100.00
43364;BME280;40636;52.424;-1.948;2022-09-01T06:42:16;100600.13;;;13.71;100.00
43364;BME280;40636;52.424;-1.948;2022-09-01T06:44:45;100596.88;;;13.75;100.00
43364;BME280;40636;52.424;-1.948;2022-09-01T06:47:12;100598.31;;;13.77;100.00
43364;BME280;40636;52.424;-1.948;2022-09-01T06:49:41;100596.38;;;13.78;100.00
43364;BME280;40636;52.424;-1.948;2022-09-01T06:52:09;100593.94;;;13.81;100.00
43364;BME280;40636;52.424;-1.948;2022-09-01T06:54:39;100599.63;;;13.75;100.00
43364;BME280;40636;52.424;-1.948;2022-09-01T06:57:09;100591.63;;;13.73;100.00
43364;BME280;40636;52.424;-1.948;2022-09-01T06:59:56;100591.63;;;13.73;100.00
43364;BME280;40636;52.424;-1.948;2022-09-01T07:02:23;100579.75;;;13.73;100.00
43364;BME280;40636;52.424;-1.948;2022-09-01T07:04:53;100585.00;;;13.74;100.00
43364;BME280;40636;52.424;-1.948;2022-09-01T07:07:21;100585.50;;;13.71;100.00
43364;BME280;40636;52.424;-1.948;2022-09-01T07:10:08;100583.03;;;13.69;100.00
43364;BME280;40636;52.424;-1.948;2022-09-01T07:12:54;100581.91;;;13.70;100.00
43364;BME280;40636;52.424;-1.948;2022-09-01T07:15:40;100589.63;;;13.68;100.00
43364;BME280;40636;52.424;-1.948;2022-09-01T07:18:30;100581.09;;;13.70;100.00
43364;BME280;40636;52.424;-1.948;2022-09-01T07:20:58;100587.00;;;13.79;100.00
43364;BME280;40636;52.424;-1.948;2022-09-01T07:23:46;100581.81;;;13.82;100.00
43364;BME280;40636;52.424;-1.948;2022-09-01T07:26:33;100588.22;;;13.88;100.00
43364;BME280;40636;52.424;-1.948;2022-09-01T07:29:03;100583.34;;;13.95;100.00
43364;BME280;40636;52.424;-1.948;2022-09-01T07:31:39;100581.44;;;13.95;100.00
43364;BME280;40636;52.424;-1.948;2022-09-01T07:34:26;100585.97;;;14.07;100.00
43364;BME280;40636;52.424;-1.948;2022-09-01T07:37:25;100584.72;;;14.19;100.00
43364;BME280;40636;52.424;-1.948;2022-09-01T07:40:16;100579.91;;;14.32;100.00
43364;BME280;40636;52.424;-1.948;2022-09-01T07:43:07;100587.66;;;14.35;100.00
43364;BME280;40636;52.424;-1.948;2022-09-01T07:45:43;100593.81;;;14.42;100.00
43364;BME280;40636;52.424;-1.948;2022-09-01T07:48:24;100585.66;;;14.52;100.00
43364;BME280;40636;52.424;-1.948;2022-09-01T07:51:15;100585.69;;;14.57;100.00
43364;BME280;40636;52.424;-1.948;2022-09-01T07:54:03;100581.88;;;14.58;100.00
43364;BME280;40636;52.424;-1.948;2022-09-01T07:56:30;100585.50;;;14.64;100.00
43364;BME280;40636;52.424;-1.948;2022-09-01T07:59:05;100585.81;;;14.67;100.00
43364;BME280;40636;52.424;-1.948;2022-09-01T08:01:32;100590.75;;;14.65;100.00
43364;BME280;40636;52.424;-1.948;2022-09-01T08:03:59;100580.53;;;14.66;100.00
43364;BME280;40636;52.424;-1.948;2022-09-01T08:06:28;100576.50;;;14.79;100.00
43364;BME280;40636;52.424;-1.948;2022-09-01T08:09:04;100580.28;;;15.00;100.00
43364;BME280;40636;52.424;-1.948;2022-09-01T08:11:38;100581.69;;;15.02;100.00
43364;BME280;40636;52.424;-1.948;2022-09-01T08:14:26;100589.00;;;15.18;100.00
43364;BME280;40636;52.424;-1.948;2022-09-01T08:16:52;100580.44;;;15.20;100.00
43364;BME280;40636;52.424;-1.948;2022-09-01T08:19:20;100572.75;;;15.27;100.00
43364;BME280;40636;52.424;-1.948;2022-09-01T08:21:47;100580.28;;;15.37;99.87
43364;BME280;40636;52.424;-1.948;2022-09-01T08:24:14;100575.94;;;15.51;99.27
43364;BME280;40636;52.424;-1.948;2022-09-01T08:26:41;100569.06;;;15.59;97.78
43364;BME280;40636;52.424;-1.948;2022-09-01T08:29:17;100580.91;;;15.49;97.54
43364;BME280;40636;52.424;-1.948;2022-09-01T08:31:46;100576.56;;;15.63;97.25
43364;BME280;40636;52.424;-1.948;2022-09-01T08:34:13;100574.41;;;15.76;96.53
43364;BME280;40636;52.424;-1.948;2022-09-01T08:36:43;100578.88;;;15.82;95.58
43364;BME280;40636;52.424;-1.948;2022-09-01T08:39:11;100567.84;;;15.92;95.48
43364;BME280;40636;52.424;-1.948;2022-09-01T08:41:42;100573.41;;;16.02;93.35
43364;BME280;40636;52.424;-1.948;2022-09-01T08:45:03;100577.91;;;16.13;91.25
43364;BME280;40636;52.424;-1.948;2022-09-01T08:47:22;100578.22;;;16.22;89.25
43364;BME280;40636;52.424;-1.948;2022-09-01T08:50:09;100563.81;;;16.30;87.89
43364;BME280;40636;52.424;-1.948;2022-09-01T08:52:42;100567.44;;;16.36;87.25
43364;BME280;40636;52.424;-1.948;2022-09-01T08:55:25;100564.38;;;16.37;86.42
43364;BME280;40636;52.424;-1.948;2022-09-01T08:57:56;100562.44;;;16.43;85.82
43364;BME280;40636;52.424;-1.948;2022-09-01T09:00:28;100568.00;;;16.43;85.36
43364;BME280;40636;52.424;-1.948;2022-09-01T09:06:05;100569.41;;;16.66;83.63
43364;BME280;40636;52.424;-1.948;2022-09-01T09:09:03;100561.94;;;16.71;82.62
43364;BME280;40636;52.424;-1.948;2022-09-01T09:11:45;100569.19;;;16.72;80.62
43364;BME280;40636;52.424;-1.948;2022-09-01T09:16:54;100557.28;;;16.72;79.77
43364;BME280;40636;52.424;-1.948;2022-09-01T09:19:29;100550.59;;;16.78;78.81
43364;BME280;40636;52.424;-1.948;2022-09-01T09:22:00;100546.72;;;16.94;78.93
43364;BME280;40636;52.424;-1.948;2022-09-01T09:24:43;100553.09;;;16.95;78.25
43364;BME280;40636;52.424;-1.948;2022-09-01T09:27:19;100558.34;;;17.02;77.78
43364;BME280;40636;52.424;-1.948;2022-09-01T09:29:48;100541.19;;;16.99;79.02
43364;BME280;40636;52.424;-1.948;2022-09-01T09:32:16;100548.66;;;17.09;77.74
43364;BME280;40636;52.424;-1.948;2022-09-01T09:35:29;100543.66;;;17.06;77.40
43364;BME280;40636;52.424;-1.948;2022-09-01T09:41:07;100542.56;;;17.12;77.85
43364;BME280;40636;52.424;-1.948;2022-09-01T09:43:57;100541.13;;;17.25;77.24
43364;BME280;40636;52.424;-1.948;2022-09-01T09:54:31;100540.28;;;17.40;75.54
43364;BME280;40636;52.424;-1.948;2022-09-01T09:59:37;100534.72;;;17.45;75.02
43364;BME280;40636;52.424;-1.948;2022-09-01T10:02:29;100520.22;;;17.53;74.74
43364;BME280;40636;52.424;-1.948;2022-09-01T10:07:49;100524.13;;;17.52;74.28
43364;BME280;40636;52.424;-1.948;2022-09-01T10:10:41;100529.94;;;17.56;73.25
43364;BME280;40636;52.424;-1.948;2022-09-01T10:13:16;100525.19;;;17.61;73.28
43364;BME280;40636;52.424;-1.948;2022-09-01T10:15:48;100520.47;;;17.72;72.08
43364;BME280;40636;52.424;-1.948;2022-09-01T10:18:23;100521.56;;;17.81;73.08
43364;BME280;40636;52.424;-1.948;2022-09-01T10:23:58;100507.03;;;17.99;72.83
43364;BME280;40636;52.424;-1.948;2022-09-01T10:26:49;100498.84;;;18.18;71.56
43364;BME280;40636;52.424;-1.948;2022-09-01T10:29:26;100496.56;;;18.31;70.44
43364;BME280;40636;52.424;-1.948;2022-09-01T10:32:02;100501.13;;;18.50;69.75
43364;BME280;40636;52.424;-1.948;2022-09-01T10:35:30;100495.66;;;18.74;68.24
43364;BME280;40636;52.424;-1.948;2022-09-01T10:38:04;100500.56;;;18.88;67.46
43364;BME280;40636;52.424;-1.948;2022-09-01T10:40:45;100491.00;;;18.99;67.40
43364;BME280;40636;52.424;-1.948;2022-09-01T10:43:24;100493.78;;;18.99;66.14
43364;BME280;40636;52.424;-1.948;2022-09-01T10:45:53;100510.06;;;19.11;65.66
43364;BME280;40636;52.424;-1.948;2022-09-01T10:48:34;100490.66;;;19.06;65.10
43364;BME280;40636;52.424;-1.948;2022-09-01T10:54:01;100485.38;;;19.04;64.42
43364;BME280;40636;52.424;-1.948;2022-09-01T10:56:45;100491.97;;;19.13;65.07
43364;BME280;40636;52.424;-1.948;2022-09-01T11:02:12;100487.09;;;19.00;65.59
43364;BME280;40636;52.424;-1.948;2022-09-01T11:07:32;100483.34;;;18.86;64.20
43364;BME280;40636;52.424;-1.948;2022-09-01T11:10:35;100479.28;;;19.02;63.82
43364;BME280;40636;52.424;-1.948;2022-09-01T11:19:46;100480.06;;;19.32;62.40
43364;BME280;40636;52.424;-1.948;2022-09-01T11:28:03;100476.97;;;19.33;61.07
43364;BME280;40636;52.424;-1.948;2022-09-01T11:36:36;100478.69;;;19.05;61.06
43364;BME280;40636;52.424;-1.948;2022-09-01T11:42:17;100470.66;;;19.04;61.16
43364;BME280;40636;52.424;-1.948;2022-09-01T11:45:16;100455.72;;;19.18;60.40
43364;BME280;40636;52.424;-1.948;2022-09-01T11:47:57;100455.59;;;19.29;60.84
43364;BME280;40636;52.424;-1.948;2022-09-01T11:50:38;100455.13;;;19.45;61.33
43364;BME280;40636;52.424;-1.948;2022-09-01T11:53:20;100448.69;;;19.50;59.25
43364;BME280;40636;52.424;-1.948;2022-09-01T11:55:51;100455.31;;;19.54;57.33
43364;BME280;40636;52.424;-1.948;2022-09-01T12:00:56;100450.94;;;19.91;59.40
43364;BME280;40636;52.424;-1.948;2022-09-01T12:03:28;100448.75;;;19.88;58.93
43364;BME280;40636;52.424;-1.948;2022-09-01T12:05:58;100439.72;;;20.15;59.87
43364;BME280;40636;52.424;-1.948;2022-09-01T12:08:30;100448.88;;;20.15;57.83
43364;BME280;40636;52.424;-1.948;2022-09-01T12:11:12;100443.88;;;19.98;56.30
43364;BME280;40636;52.424;-1.948;2022-09-01T12:13:59;100441.84;;;20.04;55.61
43364;BME280;40636;52.424;-1.948;2022-09-01T12:16:31;100430.22;;;20.16;56.75
43364;BME280;40636;52.424;-1.948;2022-09-01T12:19:01;100440.00;;;20.32;56.69
43364;BME280;40636;52.424;-1.948;2022-09-01T12:24:16;100426.88;;;20.51;54.49
43364;BME280;40636;52.424;-1.948;2022-09-01T12:26:49;100426.53;;;20.72;55.14
43364;BME280;40636;52.424;-1.948;2022-09-01T12:29:17;100432.75;;;20.96;53.66
43364;BME280;40636;52.424;-1.948;2022-09-01T12:31:47;100430.69;;;21.02;51.81
43364;BME280;40636;52.424;-1.948;2022-09-01T12:34:38;100433.16;;;20.90;51.30
43364;BME280;40636;52.424;-1.948;2022-09-01T12:39:43;100424.81;;;20.90;52.49
43364;BME280;40636;52.424;-1.948;2022-09-01T12:42:24;100423.75;;;20.86;52.86
43364;BME280;40636;52.424;-1.948;2022-09-01T12:45:08;100417.63;;;20.84;52.35
43364;BME280;40636;52.424;-1.948;2022-09-01T12:52:56;100406.09;;;20.90;50.34
43364;BME280;40636;52.424;-1.948;2022-09-01T12:55:32;100402.38;;;21.09;50.59
43364;BME280;40636;52.424;-1.948;2022-09-01T12:58:22;100400.09;;;21.24;49.60
43364;BME280;40636;52.424;-1.948;2022-09-01T13:01:07;100416.63;;;21.07;49.11
43364;BME280;40636;52.424;-1.948;2022-09-01T13:04:11;100391.00;;;20.91;50.27
43364;BME280;40636;52.424;-1.948;2022-09-01T13:06:40;100384.00;;;21.08;51.32
43364;BME280;40636;52.424;-1.948;2022-09-01T13:09:10;100384.16;;;21.11;50.95
43364;BME280;40636;52.424;-1.948;2022-09-01T13:11:37;100383.78;;;21.04;51.18
43364;BME280;40636;52.424;-1.948;2022-09-01T13:14:24;100383.06;;;21.12;50.32
43364;BME280;40636;52.424;-1.948;2022-09-01T13:16:51;100376.72;;;21.20;50.09
43364;BME280;40636;52.424;-1.948;2022-09-01T13:19:18;100370.53;;;21.10;49.53
43364;BME280;40636;52.424;-1.948;2022-09-01T13:21:55;100359.16;;;21.06;50.10
43364;BME280;40636;52.424;-1.948;2022-09-01T13:24:22;100375.28;;;20.82;49.42
43364;BME280;40636;52.424;-1.948;2022-09-01T13:26:55;100361.34;;;20.82;49.45
43364;BME280;40636;52.424;-1.948;2022-09-01T13:29:42;100359.38;;;20.68;50.23
43364;BME280;40636;52.424;-1.948;2022-09-01T13:32:09;100364.81;;;20.60;49.49
43364;BME280;40636;52.424;-1.948;2022-09-01T13:38:21;100353.81;;;20.96;49.78
43364;BME280;40636;52.424;-1.948;2022-09-01T13:40:49;100355.66;;;21.00;49.21
43364;BME280;40636;52.424;-1.948;2022-09-01T13:43:19;100344.72;;;21.04;49.21
43364;BME280;40636;52.424;-1.948;2022-09-01T13:45:59;100347.19;;;21.06;49.38
43364;BME280;40636;52.424;-1.948;2022-09-01T13:48:26;100341.59;;;21.19;49.54
43364;BME280;40636;52.424;-1.948;2022-09-01T13:51:25;100334.03;;;21.20;50.18
43364;BME280;40636;52.424;-1.948;2022-09-01T13:53:52;100333.22;;;21.19;49.42
43364;BME280;40636;52.424;-1.948;2022-09-01T13:56:19;100322.13;;;21.28;49.34
43364;BME280;40636;52.424;-1.948;2022-09-01T13:58:46;100327.22;;;21.26;48.38
43364;BME280;40636;52.424;-1.948;2022-09-01T14:01:14;100332.88;;;21.21;48.64
43364;BME280;40636;52.424;-1.948;2022-09-01T14:03:41;100328.47;;;21.06;49.67
43364;BME280;40636;52.424;-1.948;2022-09-01T14:06:14;100322.47;;;21.13;49.13
43364;BME280;40636;52.424;-1.948;2022-09-01T14:08:40;100328.34;;;21.11;49.43
43364;BME280;40636;52.424;-1.948;2022-09-01T14:11:07;100317.19;;;21.11;49.24
43364;BME280;40636;52.424;-1.948;2022-09-01T14:13:34;100324.47;;;20.98;49.02
43364;BME280;40636;52.424;-1.948;2022-09-01T14:16:09;100304.38;;;21.10;49.89